Terminal Aerodrome Forecast
Issued by NWS

Home | Current Version | Previous Version | Text Only | Print | Product List | Glossary On
Versions: 1 2 3 4 5 6 7 8 9 10 11 12 13 14 15 16 17 18 19 20
028
FTAK31 PAJN 221736
TAFAKT
TAF
PAKT 221736Z 2218/2318 14008KT 3SM -RA SCT008 BKN015 OVC022
      TEMPO 2218/2220 2SM RA BR BKN008
     FM222000 13008KT 6SM -RA BR BKN015 OVC025
     FM230900 32006KT P6SM VCSH BKN010 OVC015
     FM231600 VRB03KT P6SM SCT006 BKN035
      AMD LTD TO CLD VIS AND WIND 2306/2315=

USA.gov is the U.S. government's official web portal to all federal, state and local government web resources and services.